sensor_id;sensor_type;location;lat;lon;timestamp;P1;durP1;ratioP1;P2;durP2;ratioP2
60969;SDS011;46841;48.938;9.502;2023-05-02T00:02:09;11.05;;;7.93;;
60969;SDS011;46841;48.938;9.502;2023-05-02T00:04:35;13.02;;;7.53;;
60969;SDS011;46841;48.938;9.502;2023-05-02T00:07:03;14.07;;;8.65;;
60969;SDS011;46841;48.938;9.502;2023-05-02T00:09:29;11.63;;;7.90;;
60969;SDS011;46841;48.938;9.502;2023-05-02T00:11:54;13.48;;;8.50;;
60969;SDS011;46841;48.938;9.502;2023-05-02T00:14:20;10.70;;;7.82;;
60969;SDS011;46841;48.938;9.502;2023-05-02T00:16:45;11.68;;;7.85;;
60969;SDS011;46841;48.938;9.502;2023-05-02T00:19:10;10.32;;;7.60;;
60969;SDS011;46841;48.938;9.502;2023-05-02T00:21:36;14.60;;;8.70;;
60969;SDS011;46841;48.938;9.502;2023-05-02T00:24:01;14.20;;;8.48;;
60969;SDS011;46841;48.938;9.502;2023-05-02T00:26:26;13.02;;;7.53;;
60969;SDS011;46841;48.938;9.502;2023-05-02T00:28:53;12.00;;;8.20;;
60969;SDS011;46841;48.938;9.502;2023-05-02T00:31:18;14.82;;;7.95;;
60969;SDS011;46841;48.938;9.502;2023-05-02T00:33:43;9.63;;;7.15;;
60969;SDS011;46841;48.938;9.502;2023-05-02T00:36:12;12.07;;;7.50;;
60969;SDS011;46841;48.938;9.502;2023-05-02T00:38:38;10.77;;;7.75;;
60969;SDS011;46841;48.938;9.502;2023-05-02T00:41:03;11.57;;;7.65;;
60969;SDS011;46841;48.938;9.502;2023-05-02T00:43:29;10.40;;;7.30;;
60969;SDS011;46841;48.938;9.502;2023-05-02T00:45:54;9.45;;;7.05;;
60969;SDS011;46841;48.938;9.502;2023-05-02T00:48:20;9.68;;;7.35;;
60969;SDS011;46841;48.938;9.502;2023-05-02T00:50:45;9.00;;;7.00;;
60969;SDS011;46841;48.938;9.502;2023-05-02T00:53:11;8.90;;;6.85;;
60969;SDS011;46841;48.938;9.502;2023-05-02T00:55:36;9.45;;;7.20;;
60969;SDS011;46841;48.938;9.502;2023-05-02T00:58:02;11.98;;;8.07;;
60969;SDS011;46841;48.938;9.502;2023-05-02T01:03:20;10.18;;;7.60;;
60969;SDS011;46841;48.938;9.502;2023-05-02T01:08:38;12.05;;;7.07;;
60969;SDS011;46841;48.938;9.502;2023-05-02T01:11:09;10.77;;;7.97;;
60969;SDS011;46841;48.938;9.502;2023-05-02T01:13:42;10.95;;;7.93;;
60969;SDS011;46841;48.938;9.502;2023-05-02T01:18:35;12.65;;;8.15;;
60969;SDS011;46841;48.938;9.502;2023-05-02T01:21:03;12.80;;;8.50;;
60969;SDS011;46841;48.938;9.502;2023-05-02T01:31:24;10.95;;;8.18;;
60969;SDS011;46841;48.938;9.502;2023-05-02T01:33:49;11.98;;;8.05;;
60969;SDS011;46841;48.938;9.502;2023-05-02T01:36:15;13.18;;;9.25;;
60969;SDS011;46841;48.938;9.502;2023-05-02T01:38:41;13.23;;;9.07;;
60969;SDS011;46841;48.938;9.502;2023-05-02T01:41:08;14.02;;;8.63;;
60969;SDS011;46841;48.938;9.502;2023-05-02T01:43:34;13.48;;;8.63;;
60969;SDS011;46841;48.938;9.502;2023-05-02T01:45:59;11.05;;;8.45;;
60969;SDS011;46841;48.938;9.502;2023-05-02T01:48:26;12.50;;;8.60;;
60969;SDS011;46841;48.938;9.502;2023-05-02T01:50:52;12.10;;;8.70;;
60969;SDS011;46841;48.938;9.502;2023-05-02T01:53:18;12.50;;;8.20;;
60969;SDS011;46841;48.938;9.502;2023-05-02T01:55:46;12.13;;;8.23;;
60969;SDS011;46841;48.938;9.502;2023-05-02T01:58:13;11.43;;;8.00;;
60969;SDS011;46841;48.938;9.502;2023-05-02T02:00:39;12.13;;;8.25;;
60969;SDS011;46841;48.938;9.502;2023-05-02T02:03:05;12.73;;;8.87;;
60969;SDS011;46841;48.938;9.502;2023-05-02T02:05:31;10.90;;;7.90;;
60969;SDS011;46841;48.938;9.502;2023-05-02T02:07:57;10.43;;;7.70;;
60969;SDS011;46841;48.938;9.502;2023-05-02T02:10:23;10.73;;;7.80;;
60969;SDS011;46841;48.938;9.502;2023-05-02T02:12:51;10.55;;;7.97;;
60969;SDS011;46841;48.938;9.502;2023-05-02T02:15:18;9.73;;;7.60;;
60969;SDS011;46841;48.938;9.502;2023-05-02T02:17:48;11.68;;;7.97;;
60969;SDS011;46841;48.938;9.502;2023-05-02T02:20:19;11.43;;;7.97;;
60969;SDS011;46841;48.938;9.502;2023-05-02T02:22:46;10.80;;;7.90;;
60969;SDS011;46841;48.938;9.502;2023-05-02T02:25:13;11.57;;;8.30;;
60969;SDS011;46841;48.938;9.502;2023-05-02T02:27:40;14.20;;;7.72;;
60969;SDS011;46841;48.938;9.502;2023-05-02T02:30:06;10.73;;;7.90;;
60969;SDS011;46841;48.938;9.502;2023-05-02T02:32:32;11.40;;;7.72;;
60969;SDS011;46841;48.938;9.502;2023-05-02T02:34:57;11.93;;;7.78;;
60969;SDS011;46841;48.938;9.502;2023-05-02T02:37:30;12.63;;;8.00;;
60969;SDS011;46841;48.938;9.502;2023-05-02T02:50:09;10.40;;;8.13;;
60969;SDS011;46841;48.938;9.502;2023-05-02T02:55:23;10.73;;;8.00;;
60969;SDS011;46841;48.938;9.502;2023-05-02T02:58:30;11.75;;;8.70;;
60969;SDS011;46841;48.938;9.502;2023-05-02T03:00:45;10.68;;;8.10;;
60969;SDS011;46841;48.938;9.502;2023-05-02T03:03:11;12.18;;;7.88;;
60969;SDS011;46841;48.938;9.502;2023-05-02T03:05:38;14.27;;;9.38;;
60969;SDS011;46841;48.938;9.502;2023-05-02T03:08:03;12.13;;;8.70;;
60969;SDS011;46841;48.938;9.502;2023-05-02T03:10:29;14.20;;;9.27;;
60969;SDS011;46841;48.938;9.502;2023-05-02T03:12:54;13.68;;;9.77;;
60969;SDS011;46841;48.938;9.502;2023-05-02T03:18:25;12.95;;;8.70;;
60969;SDS011;46841;48.938;9.502;2023-05-02T03:20:52;12.70;;;8.90;;
60969;SDS011;46841;48.938;9.502;2023-05-02T03:23:18;13.95;;;9.38;;
60969;SDS011;46841;48.938;9.502;2023-05-02T03:25:43;13.40;;;9.32;;
60969;SDS011;46841;48.938;9.502;2023-05-02T03:28:12;16.33;;;10.77;;
60969;SDS011;46841;48.938;9.502;2023-05-02T03:30:40;15.65;;;10.23;;
60969;SDS011;46841;48.938;9.502;2023-05-02T03:33:07;19.63;;;11.83;;
60969;SDS011;46841;48.938;9.502;2023-05-02T03:35:33;17.37;;;10.47;;
60969;SDS011;46841;48.938;9.502;2023-05-02T03:37:59;16.38;;;10.57;;
60969;SDS011;46841;48.938;9.502;2023-05-02T03:40:26;14.80;;;9.68;;
60969;SDS011;46841;48.938;9.502;2023-05-02T03:45:24;12.55;;;8.73;;
60969;SDS011;46841;48.938;9.502;2023-05-02T03:47:51;14.18;;;8.82;;
60969;SDS011;46841;48.938;9.502;2023-05-02T03:50:16;14.23;;;9.88;;
60969;SDS011;46841;48.938;9.502;2023-05-02T03:52:44;14.38;;;9.95;;
60969;SDS011;46841;48.938;9.502;2023-05-02T03:55:11;14.80;;;9.13;;
60969;SDS011;46841;48.938;9.502;2023-05-02T03:57:37;13.30;;;8.93;;
60969;SDS011;46841;48.938;9.502;2023-05-02T04:00:03;13.05;;;9.10;;
60969;SDS011;46841;48.938;9.502;2023-05-02T04:02:36;14.93;;;8.93;;
60969;SDS011;46841;48.938;9.502;2023-05-02T04:05:03;11.40;;;8.63;;
60969;SDS011;46841;48.938;9.502;2023-05-02T04:07:29;11.40;;;8.48;;
60969;SDS011;46841;48.938;9.502;2023-05-02T04:10:01;10.93;;;8.35;;
60969;SDS011;46841;48.938;9.502;2023-05-02T04:12:28;12.02;;;8.75;;
60969;SDS011;46841;48.938;9.502;2023-05-02T04:14:54;18.38;;;10.23;;
60969;SDS011;46841;48.938;9.502;2023-05-02T04:17:24;12.65;;;9.18;;
60969;SDS011;46841;48.938;9.502;2023-05-02T04:19:50;16.13;;;9.98;;
60969;SDS011;46841;48.938;9.502;2023-05-02T04:22:17;14.40;;;9.20;;
60969;SDS011;46841;48.938;9.502;2023-05-02T04:24:48;12.50;;;9.40;;
60969;SDS011;46841;48.938;9.502;2023-05-02T04:27:14;14.25;;;9.90;;
60969;SDS011;46841;48.938;9.502;2023-05-02T04:29:39;14.65;;;9.77;;
60969;SDS011;46841;48.938;9.502;2023-05-02T04:32:05;14.45;;;9.85;;
60969;SDS011;46841;48.938;9.502;2023-05-02T04:34:30;14.50;;;10.57;;
60969;SDS011;46841;48.938;9.502;2023-05-02T04:36:56;16.30;;;10.70;;
60969;SDS011;46841;48.938;9.502;2023-05-02T04:39:23;15.30;;;9.95;;
60969;SDS011;46841;48.938;9.502;2023-05-02T04:42:00;14.07;;;10.37;;
60969;SDS011;46841;48.938;9.502;2023-05-02T04:44:27;16.45;;;11.18;;
60969;SDS011;46841;48.938;9.502;2023-05-02T04:46:53;18.83;;;11.77;;
60969;SDS011;46841;48.938;9.502;2023-05-02T04:49:19;17.95;;;11.57;;
60969;SDS011;46841;48.938;9.502;2023-05-02T04:51:45;15.82;;;11.02;;
60969;SDS011;46841;48.938;9.502;2023-05-02T04:54:11;13.93;;;10.10;;
60969;SDS011;46841;48.938;9.502;2023-05-02T04:56:37;13.73;;;9.95;;
60969;SDS011;46841;48.938;9.502;2023-05-02T04:59:03;14.65;;;9.73;;
60969;SDS011;46841;48.938;9.502;2023-05-02T05:01:30;14.60;;;10.00;;
60969;SDS011;46841;48.938;9.502;2023-05-02T05:03:56;15.05;;;9.40;;
60969;SDS011;46841;48.938;9.502;2023-05-02T05:06:21;11.55;;;9.27;;
60969;SDS011;46841;48.938;9.502;2023-05-02T05:08:47;14.20;;;9.90;;
60969;SDS011;46841;48.938;9.502;2023-05-02T05:11:14;13.43;;;8.70;;
60969;SDS011;46841;48.938;9.502;2023-05-02T05:13:42;11.65;;;9.25;;
60969;SDS011;46841;48.938;9.502;2023-05-02T05:16:09;15.63;;;9.23;;
60969;SDS011;46841;48.938;9.502;2023-05-02T05:18:35;15.70;;;10.75;;
60969;SDS011;46841;48.938;9.502;2023-05-02T05:21:05;15.65;;;11.10;;
60969;SDS011;46841;48.938;9.502;2023-05-02T05:23:31;14.52;;;11.00;;
60969;SDS011;46841;48.938;9.502;2023-05-02T05:25:56;15.90;;;11.43;;
60969;SDS011;46841;48.938;9.502;2023-05-02T05:28:23;15.82;;;9.98;;
60969;SDS011;46841;48.938;9.502;2023-05-02T05:30:48;13.82;;;9.32;;
60969;SDS011;46841;48.938;9.502;2023-05-02T05:33:18;17.13;;;11.15;;
60969;SDS011;46841;48.938;9.502;2023-05-02T05:35:43;17.08;;;11.02;;
60969;SDS011;46841;48.938;9.502;2023-05-02T05:38:09;14.70;;;11.02;;
60969;SDS011;46841;48.938;9.502;2023-05-02T05:43:03;14.50;;;10.90;;
60969;SDS011;46841;48.938;9.502;2023-05-02T05:45:32;14.43;;;10.95;;
60969;SDS011;46841;48.938;9.502;2023-05-02T05:47:58;15.40;;;11.15;;
60969;SDS011;46841;48.938;9.502;2023-05-02T05:50:26;16.80;;;11.32;;
60969;SDS011;46841;48.938;9.502;2023-05-02T05:52:51;18.13;;;10.40;;
60969;SDS011;46841;48.938;9.502;2023-05-02T05:55:17;12.63;;;9.40;;
60969;SDS011;46841;48.938;9.502;2023-05-02T05:57:42;15.60;;;10.55;;
60969;SDS011;46841;48.938;9.502;2023-05-02T06:00:08;14.43;;;9.88;;
60969;SDS011;46841;48.938;9.502;2023-05-02T06:02:41;13.00;;;9.57;;
60969;SDS011;46841;48.938;9.502;2023-05-02T06:05:08;13.55;;;9.32;;
60969;SDS011;46841;48.938;9.502;2023-05-02T06:07:33;16.02;;;9.13;;
60969;SDS011;46841;48.938;9.502;2023-05-02T06:09:58;12.52;;;8.70;;
60969;SDS011;46841;48.938;9.502;2023-05-02T06:12:25;12.13;;;8.93;;
60969;SDS011;46841;48.938;9.502;2023-05-02T06:14:51;14.73;;;9.93;;
60969;SDS011;46841;48.938;9.502;2023-05-02T06:17:17;18.20;;;9.88;;
60969;SDS011;46841;48.938;9.502;2023-05-02T06:19:42;12.60;;;9.38;;
60969;SDS011;46841;48.938;9.502;2023-05-02T06:22:10;15.93;;;10.63;;
60969;SDS011;46841;48.938;9.502;2023-05-02T06:24:35;13.85;;;10.02;;
60969;SDS011;46841;48.938;9.502;2023-05-02T06:27:01;14.18;;;10.85;;
60969;SDS011;46841;48.938;9.502;2023-05-02T06:29:27;16.98;;;11.40;;
60969;SDS011;46841;48.938;9.502;2023-05-02T06:31:54;13.48;;;10.65;;
60969;SDS011;46841;48.938;9.502;2023-05-02T06:34:19;13.55;;;10.75;;
60969;SDS011;46841;48.938;9.502;2023-05-02T06:36:44;17.25;;;11.07;;
60969;SDS011;46841;48.938;9.502;2023-05-02T06:39:10;13.35;;;10.60;;
60969;SDS011;46841;48.938;9.502;2023-05-02T06:41:35;13.63;;;10.25;;
60969;SDS011;46841;48.938;9.502;2023-05-02T06:44:00;12.00;;;9.20;;
60969;SDS011;46841;48.938;9.502;2023-05-02T06:46:29;13.85;;;9.77;;
60969;SDS011;46841;48.938;9.502;2023-05-02T06:48:55;11.77;;;9.48;;
60969;SDS011;46841;48.938;9.502;2023-05-02T06:51:20;12.07;;;8.20;;
60969;SDS011;46841;48.938;9.502;2023-05-02T06:53:46;11.02;;;8.68;;
60969;SDS011;46841;48.938;9.502;2023-05-02T06:56:11;10.43;;;8.35;;
60969;SDS011;46841;48.938;9.502;2023-05-02T06:58:37;11.35;;;8.77;;
60969;SDS011;46841;48.938;9.502;2023-05-02T07:01:02;10.77;;;8.50;;
60969;SDS011;46841;48.938;9.502;2023-05-02T07:03:27;13.10;;;8.68;;
60969;SDS011;46841;48.938;9.502;2023-05-02T07:05:53;11.63;;;8.70;;
60969;SDS011;46841;48.938;9.502;2023-05-02T07:08:18;11.13;;;8.07;;
60969;SDS011;46841;48.938;9.502;2023-05-02T07:10:45;10.82;;;7.88;;
60969;SDS011;46841;48.938;9.502;2023-05-02T07:13:10;13.55;;;8.48;;
60969;SDS011;46841;48.938;9.502;2023-05-02T07:15:36;12.27;;;9.10;;
60969;SDS011;46841;48.938;9.502;2023-05-02T07:18:01;11.77;;;8.98;;
60969;SDS011;46841;48.938;9.502;2023-05-02T07:20:26;11.38;;;8.95;;
60969;SDS011;46841;48.938;9.502;2023-05-02T07:22:52;13.32;;;8.77;;
60969;SDS011;46841;48.938;9.502;2023-05-02T07:25:17;10.57;;;8.27;;
60969;SDS011;46841;48.938;9.502;2023-05-02T07:27:43;14.75;;;9.30;;
60969;SDS011;46841;48.938;9.502;2023-05-02T07:30:08;12.68;;;8.27;;
60969;SDS011;46841;48.938;9.502;2023-05-02T07:32:33;11.23;;;8.38;;
60969;SDS011;46841;48.938;9.502;2023-05-02T07:34:59;10.82;;;7.97;;
60969;SDS011;46841;48.938;9.502;2023-05-02T07:37:24;11.93;;;7.80;;
60969;SDS011;46841;48.938;9.502;2023-05-02T07:39:49;11.48;;;7.90;;
60969;SDS011;46841;48.938;9.502;2023-05-02T07:42:15;12.27;;;8.50;;
60969;SDS011;46841;48.938;9.502;2023-05-02T07:44:40;9.85;;;7.80;;
60969;SDS011;46841;48.938;9.502;2023-05-02T07:47:06;15.25;;;9.68;;
60969;SDS011;46841;48.938;9.502;2023-05-02T07:49:32;12.43;;;8.67;;
60969;SDS011;46841;48.938;9.502;2023-05-02T07:51:57;11.57;;;8.13;;
60969;SDS011;46841;48.938;9.502;2023-05-02T07:54:22;12.23;;;8.02;;
60969;SDS011;46841;48.938;9.502;2023-05-02T07:56:50;13.40;;;9.15;;
60969;SDS011;46841;48.938;9.502;2023-05-02T07:59:15;14.25;;;8.85;;
60969;SDS011;46841;48.938;9.502;2023-05-02T08:01:41;13.65;;;9.70;;
60969;SDS011;46841;48.938;9.502;2023-05-02T08:04:07;12.23;;;9.02;;
60969;SDS011;46841;48.938;9.502;2023-05-02T08:06:32;11.15;;;8.98;;
60969;SDS011;46841;48.938;9.502;2023-05-02T08:08:58;11.57;;;9.25;;
60969;SDS011;46841;48.938;9.502;2023-05-02T08:11:23;17.02;;;9.80;;
60969;SDS011;46841;48.938;9.502;2023-05-02T08:13:50;13.50;;;9.48;;
60969;SDS011;46841;48.938;9.502;2023-05-02T08:16:15;13.52;;;9.75;;
60969;SDS011;46841;48.938;9.502;2023-05-02T08:18:41;14.50;;;9.60;;
60969;SDS011;46841;48.938;9.502;2023-05-02T08:21:06;16.10;;;9.57;;
60969;SDS011;46841;48.938;9.502;2023-05-02T08:23:32;14.55;;;10.13;;
60969;SDS011;46841;48.938;9.502;2023-05-02T08:25:58;12.63;;;9.50;;
60969;SDS011;46841;48.938;9.502;2023-05-02T08:28:23;13.02;;;9.02;;
60969;SDS011;46841;48.938;9.502;2023-05-02T08:30:48;19.48;;;10.23;;
60969;SDS011;46841;48.938;9.502;2023-05-02T08:33:13;13.60;;;10.25;;
60969;SDS011;46841;48.938;9.502;2023-05-02T08:35:39;16.33;;;10.13;;
60969;SDS011;46841;48.938;9.502;2023-05-02T08:38:05;15.93;;;9.82;;
60969;SDS011;46841;48.938;9.502;2023-05-02T08:40:31;11.75;;;10.32;;
60969;SDS011;46841;48.938;9.502;2023-05-02T08:42:57;13.73;;;10.75;;
60969;SDS011;46841;48.938;9.502;2023-05-02T08:45:22;15.68;;;10.80;;
60969;SDS011;46841;48.938;9.502;2023-05-02T08:47:48;16.52;;;10.43;;
60969;SDS011;46841;48.938;9.502;2023-05-02T08:50:14;15.93;;;10.38;;
60969;SDS011;46841;48.938;9.502;2023-05-02T08:52:41;13.77;;;10.68;;
60969;SDS011;46841;48.938;9.502;2023-05-02T08:55:08;15.23;;;10.82;;
60969;SDS011;46841;48.938;9.502;2023-05-02T08:57:33;15.35;;;11.57;;
60969;SDS011;46841;48.938;9.502;2023-05-02T08:59:59;17.52;;;10.57;;
60969;SDS011;46841;48.938;9.502;2023-05-02T09:02:35;13.65;;;10.20;;
60969;SDS011;46841;48.938;9.502;2023-05-02T09:05:05;12.95;;;9.93;;
60969;SDS011;46841;48.938;9.502;2023-05-02T09:07:45;14.55;;;10.32;;
60969;SDS011;46841;48.938;9.502;2023-05-02T09:10:11;15.57;;;10.23;;
60969;SDS011;46841;48.938;9.502;2023-05-02T09:12:37;15.20;;;10.77;;
60969;SDS011;46841;48.938;9.502;2023-05-02T09:15:07;14.23;;;10.80;;
60969;SDS011;46841;48.938;9.502;2023-05-02T09:17:43;13.73;;;11.20;;
60969;SDS011;46841;48.938;9.502;2023-05-02T09:20:09;12.35;;;10.02;;
60969;SDS011;46841;48.938;9.502;2023-05-02T09:22:35;14.60;;;10.65;;
60969;SDS011;46841;48.938;9.502;2023-05-02T09:25:01;17.30;;;11.85;;
60969;SDS011;46841;48.938;9.502;2023-05-02T09:27:26;14.32;;;11.02;;
60969;SDS011;46841;48.938;9.502;2023-05-02T09:29:52;20.58;;;10.95;;
60969;SDS011;46841;48.938;9.502;2023-05-02T09:32:44;19.95;;;11.55;;
60969;SDS011;46841;48.938;9.502;2023-05-02T09:35:10;16.48;;;12.73;;
60969;SDS011;46841;48.938;9.502;2023-05-02T09:37:35;15.90;;;12.13;;
60969;SDS011;46841;48.938;9.502;2023-05-02T09:40:04;15.50;;;11.68;;
60969;SDS011;46841;48.938;9.502;2023-05-02T09:42:30;15.35;;;11.80;;
60969;SDS011;46841;48.938;9.502;2023-05-02T09:44:55;16.92;;;12.63;;
60969;SDS011;46841;48.938;9.502;2023-05-02T09:47:24;18.25;;;12.35;;
60969;SDS011;46841;48.938;9.502;2023-05-02T09:49:50;17.02;;;12.65;;
60969;SDS011;46841;48.938;9.502;2023-05-02T09:52:17;16.95;;;12.93;;
60969;SDS011;46841;48.938;9.502;2023-05-02T09:54:43;16.65;;;12.18;;
60969;SDS011;46841;48.938;9.502;2023-05-02T09:59:36;16.87;;;12.90;;
60969;SDS011;46841;48.938;9.502;2023-05-02T10:02:03;16.33;;;12.63;;
60969;SDS011;46841;48.938;9.502;2023-05-02T10:04:29;17.45;;;12.75;;
60969;SDS011;46841;48.938;9.502;2023-05-02T10:06:55;14.98;;;11.88;;
60969;SDS011;46841;48.938;9.502;2023-05-02T10:09:21;15.03;;;12.27;;
60969;SDS011;46841;48.938;9.502;2023-05-02T10:11:50;16.33;;;11.63;;
60969;SDS011;46841;48.938;9.502;2023-05-02T10:14:15;20.13;;;13.10;;
60969;SDS011;46841;48.938;9.502;2023-05-02T10:19:23;16.98;;;12.60;;
60969;SDS011;46841;48.938;9.502;2023-05-02T10:21:51;17.10;;;12.15;;
60969;SDS011;46841;48.938;9.502;2023-05-02T10:24:17;15.27;;;12.57;;
60969;SDS011;46841;48.938;9.502;2023-05-02T10:26:43;15.77;;;12.57;;
60969;SDS011;46841;48.938;9.502;2023-05-02T10:29:08;18.50;;;13.10;;
60969;SDS011;46841;48.938;9.502;2023-05-02T10:31:34;15.68;;;13.02;;
60969;SDS011;46841;48.938;9.502;2023-05-02T10:36:26;16.23;;;12.27;;
60969;SDS011;46841;48.938;9.502;2023-05-02T10:38:52;14.15;;;11.43;;
60969;SDS011;46841;48.938;9.502;2023-05-02T10:41:19;17.25;;;13.02;;
60969;SDS011;46841;48.938;9.502;2023-05-02T10:43:47;16.67;;;12.45;;
60969;SDS011;46841;48.938;9.502;2023-05-02T10:46:46;18.60;;;11.65;;
60969;SDS011;46841;48.938;9.502;2023-05-02T10:49:08;15.45;;;12.38;;
60969;SDS011;46841;48.938;9.502;2023-05-02T10:51:34;15.52;;;12.57;;
60969;SDS011;46841;48.938;9.502;2023-05-02T10:59:28;13.77;;;10.55;;
60969;SDS011;46841;48.938;9.502;2023-05-02T11:01:54;14.82;;;11.02;;
60969;SDS011;46841;48.938;9.502;2023-05-02T11:04:20;13.23;;;10.85;;
60969;SDS011;46841;48.938;9.502;2023-05-02T11:11:48;19.13;;;12.40;;
60969;SDS011;46841;48.938;9.502;2023-05-02T11:14:48;17.43;;;12.00;;
60969;SDS011;46841;48.938;9.502;2023-05-02T11:17:09;18.20;;;11.85;;
60969;SDS011;46841;48.938;9.502;2023-05-02T11:24:47;19.00;;;11.82;;
60969;SDS011;46841;48.938;9.502;2023-05-02T11:29:54;16.98;;;11.95;;
60969;SDS011;46841;48.938;9.502;2023-05-02T11:32:20;16.20;;;12.43;;
60969;SDS011;46841;48.938;9.502;2023-05-02T11:34:47;14.70;;;11.57;;
60969;SDS011;46841;48.938;9.502;2023-05-02T11:37:14;17.75;;;11.82;;
60969;SDS011;46841;48.938;9.502;2023-05-02T11:39:40;15.02;;;11.30;;
60969;SDS011;46841;48.938;9.502;2023-05-02T11:42:05;16.77;;;12.52;;
60969;SDS011;46841;48.938;9.502;2023-05-02T11:44:31;19.48;;;13.70;;
60969;SDS011;46841;48.938;9.502;2023-05-02T11:46:56;18.83;;;13.93;;
60969;SDS011;46841;48.938;9.502;2023-05-02T11:49:21;19.20;;;13.55;;
60969;SDS011;46841;48.938;9.502;2023-05-02T11:51:47;19.30;;;13.88;;
60969;SDS011;46841;48.938;9.502;2023-05-02T11:54:18;20.60;;;13.52;;
60969;SDS011;46841;48.938;9.502;2023-05-02T11:56:44;14.80;;;11.65;;
60969;SDS011;46841;48.938;9.502;2023-05-02T11:59:10;17.23;;;9.93;;
60969;SDS011;46841;48.938;9.502;2023-05-02T12:01:35;13.82;;;9.18;;
60969;SDS011;46841;48.938;9.502;2023-05-02T12:04:04;13.73;;;9.45;;
60969;SDS011;46841;48.938;9.502;2023-05-02T12:06:31;12.50;;;9.82;;
60969;SDS011;46841;48.938;9.502;2023-05-02T12:09:06;12.75;;;9.25;;
60969;SDS011;46841;48.938;9.502;2023-05-02T12:11:32;12.68;;;10.57;;
60969;SDS011;46841;48.938;9.502;2023-05-02T12:13:57;17.50;;;11.50;;
60969;SDS011;46841;48.938;9.502;2023-05-02T12:16:22;16.02;;;12.48;;
60969;SDS011;46841;48.938;9.502;2023-05-02T12:18:48;19.90;;;13.77;;
60969;SDS011;46841;48.938;9.502;2023-05-02T12:21:13;16.88;;;12.65;;
60969;SDS011;46841;48.938;9.502;2023-05-02T12:23:39;19.17;;;13.23;;
60969;SDS011;46841;48.938;9.502;2023-05-02T12:26:19;17.50;;;13.35;;
60969;SDS011;46841;48.938;9.502;2023-05-02T12:28:51;17.92;;;13.25;;
60969;SDS011;46841;48.938;9.502;2023-05-02T12:31:18;21.50;;;16.85;;
60969;SDS011;46841;48.938;9.502;2023-05-02T12:33:44;20.88;;;16.25;;
60969;SDS011;46841;48.938;9.502;2023-05-02T12:36:12;24.67;;;18.20;;
60969;SDS011;46841;48.938;9.502;2023-05-02T12:38:37;22.73;;;17.52;;
60969;SDS011;46841;48.938;9.502;2023-05-02T12:41:02;26.90;;;19.63;;
60969;SDS011;46841;48.938;9.502;2023-05-02T12:43:32;27.85;;;19.77;;
60969;SDS011;46841;48.938;9.502;2023-05-02T12:46:09;24.67;;;19.10;;
60969;SDS011;46841;48.938;9.502;2023-05-02T12:48:35;24.75;;;17.73;;
60969;SDS011;46841;48.938;9.502;2023-05-02T12:51:00;19.58;;;13.32;;
60969;SDS011;46841;48.938;9.502;2023-05-02T12:56:04;17.95;;;12.23;;
60969;SDS011;46841;48.938;9.502;2023-05-02T12:58:37;20.13;;;13.57;;
60969;SDS011;46841;48.938;9.502;2023-05-02T13:01:03;16.33;;;11.48;;
60969;SDS011;46841;48.938;9.502;2023-05-02T13:03:31;20.27;;;14.05;;
60969;SDS011;46841;48.938;9.502;2023-05-02T13:05:56;16.60;;;12.85;;
60969;SDS011;46841;48.938;9.502;2023-05-02T13:08:21;16.13;;;12.10;;
60969;SDS011;46841;48.938;9.502;2023-05-02T13:10:47;16.77;;;11.90;;
60969;SDS011;46841;48.938;9.502;2023-05-02T13:13:13;15.98;;;12.00;;
60969;SDS011;46841;48.938;9.502;2023-05-02T13:15:38;16.85;;;12.27;;
60969;SDS011;46841;48.938;9.502;2023-05-02T13:18:03;14.60;;;10.90;;
60969;SDS011;46841;48.938;9.502;2023-05-02T13:20:29;13.70;;;9.48;;
60969;SDS011;46841;48.938;9.502;2023-05-02T13:22:54;12.75;;;9.50;;
60969;SDS011;46841;48.938;9.502;2023-05-02T13:25:19;11.32;;;7.93;;
60969;SDS011;46841;48.938;9.502;2023-05-02T13:27:45;17.95;;;10.15;;
60969;SDS011;46841;48.938;9.502;2023-05-02T13:30:10;15.80;;;11.25;;
60969;SDS011;46841;48.938;9.502;2023-05-02T13:32:36;13.15;;;9.63;;
60969;SDS011;46841;48.938;9.502;2023-05-02T13:35:01;12.88;;;8.88;;
60969;SDS011;46841;48.938;9.502;2023-05-02T13:37:27;19.08;;;9.15;;
60969;SDS011;46841;48.938;9.502;2023-05-02T13:39:53;14.30;;;9.32;;
60969;SDS011;46841;48.938;9.502;2023-05-02T13:42:18;14.60;;;9.45;;
60969;SDS011;46841;48.938;9.502;2023-05-02T13:44:43;11.27;;;8.25;;
60969;SDS011;46841;48.938;9.502;2023-05-02T13:47:09;12.18;;;7.85;;
60969;SDS011;46841;48.938;9.502;2023-05-02T13:49:34;9.02;;;7.05;;
60969;SDS011;46841;48.938;9.502;2023-05-02T13:51:59;10.98;;;7.35;;
60969;SDS011;46841;48.938;9.502;2023-05-02T13:54:25;10.75;;;7.32;;
60969;SDS011;46841;48.938;9.502;2023-05-02T13:56:50;11.07;;;6.77;;
60969;SDS011;46841;48.938;9.502;2023-05-02T13:59:16;8.68;;;6.53;;
60969;SDS011;46841;48.938;9.502;2023-05-02T14:01:41;8.73;;;5.87;;
60969;SDS011;46841;48.938;9.502;2023-05-02T14:04:06;8.27;;;5.93;;
60969;SDS011;46841;48.938;9.502;2023-05-02T14:06:33;9.43;;;6.47;;
60969;SDS011;46841;48.938;9.502;2023-05-02T14:08:59;8.27;;;5.95;;
60969;SDS011;46841;48.938;9.502;2023-05-02T14:11:24;9.00;;;5.17;;
60969;SDS011;46841;48.938;9.502;2023-05-02T14:13:49;7.97;;;5.97;;
60969;SDS011;46841;48.938;9.502;2023-05-02T14:16:14;6.37;;;5.23;;
60969;SDS011;46841;48.938;9.502;2023-05-02T14:18:40;6.23;;;4.43;;
60969;SDS011;46841;48.938;9.502;2023-05-02T14:21:05;10.63;;;5.13;;
60969;SDS011;46841;48.938;9.502;2023-05-02T14:23:31;8.90;;;5.60;;
60969;SDS011;46841;48.938;9.502;2023-05-02T14:25:56;7.57;;;5.20;;
60969;SDS011;46841;48.938;9.502;2023-05-02T14:28:21;6.60;;;4.93;;
60969;SDS011;46841;48.938;9.502;2023-05-02T14:30:47;7.83;;;5.53;;
60969;SDS011;46841;48.938;9.502;2023-05-02T14:33:13;8.63;;;5.85;;
60969;SDS011;46841;48.938;9.502;2023-05-02T14:35:38;6.90;;;5.03;;
60969;SDS011;46841;48.938;9.502;2023-05-02T14:38:03;6.57;;;5.20;;
60969;SDS011;46841;48.938;9.502;2023-05-02T14:40:29;8.93;;;5.10;;
60969;SDS011;46841;48.938;9.502;2023-05-02T14:42:54;8.53;;;5.03;;
60969;SDS011;46841;48.938;9.502;2023-05-02T14:45:19;7.03;;;4.97;;
60969;SDS011;46841;48.938;9.502;2023-05-02T14:47:45;7.07;;;5.00;;
60969;SDS011;46841;48.938;9.502;2023-05-02T14:50:11;8.70;;;5.27;;
60969;SDS011;46841;48.938;9.502;2023-05-02T14:52:36;6.83;;;4.73;;
60969;SDS011;46841;48.938;9.502;2023-05-02T14:55:01;10.37;;;5.37;;
60969;SDS011;46841;48.938;9.502;2023-05-02T14:57:27;8.00;;;6.00;;
60969;SDS011;46841;48.938;9.502;2023-05-02T14:59:52;11.50;;;7.57;;
60969;SDS011;46841;48.938;9.502;2023-05-02T15:02:18;11.73;;;7.70;;
60969;SDS011;46841;48.938;9.502;2023-05-02T15:04:43;18.23;;;8.43;;
60969;SDS011;46841;48.938;9.502;2023-05-02T15:07:09;18.02;;;8.70;;
60969;SDS011;46841;48.938;9.502;2023-05-02T15:09:34;13.18;;;9.73;;
60969;SDS011;46841;48.938;9.502;2023-05-02T15:12:00;15.63;;;9.48;;
60969;SDS011;46841;48.938;9.502;2023-05-02T15:14:27;11.50;;;8.88;;
60969;SDS011;46841;48.938;9.502;2023-05-02T15:16:52;12.95;;;8.85;;
60969;SDS011;46841;48.938;9.502;2023-05-02T15:19:17;10.80;;;8.30;;
60969;SDS011;46841;48.938;9.502;2023-05-02T15:21:43;13.50;;;8.82;;
60969;SDS011;46841;48.938;9.502;2023-05-02T15:24:08;10.45;;;7.43;;
60969;SDS011;46841;48.938;9.502;2023-05-02T15:26:34;12.50;;;7.97;;
60969;SDS011;46841;48.938;9.502;2023-05-02T15:28:59;16.58;;;9.32;;
60969;SDS011;46841;48.938;9.502;2023-05-02T15:31:25;17.37;;;9.43;;
60969;SDS011;46841;48.938;9.502;2023-05-02T15:33:50;12.57;;;8.20;;